sensor_id;sensor_type;location;lat;lon;timestamp;pressure;altitude;pressure_sealevel;temperature;humidity
24962;BME280;12992;50.884;13.668;2023-03-18T00:02:07;96565.28;;;8.13;54.83
24962;BME280;12992;50.884;13.668;2023-03-18T00:04:33;96578.88;;;8.18;54.67
24962;BME280;12992;50.884;13.668;2023-03-18T00:06:58;96565.59;;;8.17;54.47
24962;BME280;12992;50.884;13.668;2023-03-18T00:09:24;96559.34;;;8.16;54.40
24962;BME280;12992;50.884;13.668;2023-03-18T00:11:49;96566.69;;;8.21;54.70
24962;BME280;12992;50.884;13.668;2023-03-18T00:14:15;96568.59;;;8.20;54.60
24962;BME280;12992;50.884;13.668;2023-03-18T00:16:40;96575.97;;;8.25;54.11
24962;BME280;12992;50.884;13.668;2023-03-18T00:19:06;96567.56;;;8.27;54.01
24962;BME280;12992;50.884;13.668;2023-03-18T00:21:32;96568.63;;;8.26;54.22
24962;BME280;12992;50.884;13.668;2023-03-18T00:23:58;96555.59;;;8.22;54.11
24962;BME280;12992;50.884;13.668;2023-03-18T00:26:26;96568.91;;;8.29;53.83
24962;BME280;12992;50.884;13.668;2023-03-18T00:28:53;96567.03;;;8.30;54.22
24962;BME280;12992;50.884;13.668;2023-03-18T00:31:19;96563.50;;;8.29;54.07
24962;BME280;12992;50.884;13.668;2023-03-18T00:33:44;96590.75;;;8.39;53.65
24962;BME280;12992;50.884;13.668;2023-03-18T00:36:13;96571.50;;;8.41;53.87
24962;BME280;12992;50.884;13.668;2023-03-18T00:38:44;96577.44;;;8.38;53.80
24962;BME280;12992;50.884;13.668;2023-03-18T00:41:10;96576.94;;;8.41;53.78
24962;BME280;12992;50.884;13.668;2023-03-18T00:43:38;96568.78;;;8.41;53.65
24962;BME280;12992;50.884;13.668;2023-03-18T00:46:12;96584.00;;;8.47;53.54
24962;BME280;12992;50.884;13.668;2023-03-18T00:48:38;96584.06;;;8.52;53.26
24962;BME280;12992;50.884;13.668;2023-03-18T00:51:04;96586.25;;;8.55;53.11
24962;BME280;12992;50.884;13.668;2023-03-18T00:53:30;96585.47;;;8.60;52.85
24962;BME280;12992;50.884;13.668;2023-03-18T00:55:55;96584.13;;;8.62;53.25
24962;BME280;12992;50.884;13.668;2023-03-18T00:58:20;96571.59;;;8.56;52.64
24962;BME280;12992;50.884;13.668;2023-03-18T01:00:46;96566.44;;;8.55;52.76
24962;BME280;12992;50.884;13.668;2023-03-18T01:03:11;96561.53;;;8.51;53.02
24962;BME280;12992;50.884;13.668;2023-03-18T01:05:38;96540.56;;;8.42;52.85
24962;BME280;12992;50.884;13.668;2023-03-18T01:08:04;96530.22;;;8.39;52.74
24962;BME280;12992;50.884;13.668;2023-03-18T01:10:29;96522.00;;;8.29;53.09
24962;BME280;12992;50.884;13.668;2023-03-18T01:12:55;96512.50;;;8.26;53.13
24962;BME280;12992;50.884;13.668;2023-03-18T01:15:21;96521.72;;;8.25;53.23
24962;BME280;12992;50.884;13.668;2023-03-18T01:17:47;96513.25;;;8.21;53.32
24962;BME280;12992;50.884;13.668;2023-03-18T01:20:16;96518.13;;;8.19;53.25
24962;BME280;12992;50.884;13.668;2023-03-18T01:22:43;96507.53;;;8.18;53.21
24962;BME280;12992;50.884;13.668;2023-03-18T01:25:11;96511.34;;;8.17;53.02
24962;BME280;12992;50.884;13.668;2023-03-18T01:27:37;96516.75;;;8.17;53.17
24962;BME280;12992;50.884;13.668;2023-03-18T01:30:07;96512.69;;;8.14;53.15
24962;BME280;12992;50.884;13.668;2023-03-18T01:32:33;96500.72;;;8.10;53.73
24962;BME280;12992;50.884;13.668;2023-03-18T01:34:58;96496.34;;;8.04;53.35
24962;BME280;12992;50.884;13.668;2023-03-18T01:37:25;96486.53;;;7.98;53.73
24962;BME280;12992;50.884;13.668;2023-03-18T01:40:02;96494.13;;;7.96;53.64
24962;BME280;12992;50.884;13.668;2023-03-18T01:42:27;96491.34;;;7.91;54.02
24962;BME280;12992;50.884;13.668;2023-03-18T01:45:20;96504.63;;;7.92;53.88
24962;BME280;12992;50.884;13.668;2023-03-18T01:47:49;96510.06;;;7.92;53.92
24962;BME280;12992;50.884;13.668;2023-03-18T01:50:20;96507.59;;;7.91;53.71
24962;BME280;12992;50.884;13.668;2023-03-18T01:52:51;96515.47;;;7.92;53.55
24962;BME280;12992;50.884;13.668;2023-03-18T01:55:19;96516.81;;;7.90;53.79
24962;BME280;12992;50.884;13.668;2023-03-18T01:57:46;96510.28;;;7.86;53.86
24962;BME280;12992;50.884;13.668;2023-03-18T02:00:13;96507.00;;;7.84;54.11
24962;BME280;12992;50.884;13.668;2023-03-18T02:02:43;96507.78;;;7.79;53.80
24962;BME280;12992;50.884;13.668;2023-03-18T02:05:14;96515.09;;;7.79;54.09
24962;BME280;12992;50.884;13.668;2023-03-18T02:07:42;96508.06;;;7.78;53.98
24962;BME280;12992;50.884;13.668;2023-03-18T02:10:29;96520.53;;;7.79;53.94
24962;BME280;12992;50.884;13.668;2023-03-18T02:13:03;96529.22;;;7.81;54.25
24962;BME280;12992;50.884;13.668;2023-03-18T02:15:39;96514.53;;;7.77;54.43
24962;BME280;12992;50.884;13.668;2023-03-18T02:18:16;96516.13;;;7.73;54.25
24962;BME280;12992;50.884;13.668;2023-03-18T02:20:50;96525.00;;;7.68;54.43
24962;BME280;12992;50.884;13.668;2023-03-18T02:26:24;96525.81;;;7.63;54.19
24962;BME280;12992;50.884;13.668;2023-03-18T02:28:53;96538.53;;;7.63;54.59
24962;BME280;12992;50.884;13.668;2023-03-18T02:31:21;96530.97;;;7.65;54.15
24962;BME280;12992;50.884;13.668;2023-03-18T02:33:47;96542.34;;;7.67;54.36
24962;BME280;12992;50.884;13.668;2023-03-18T02:36:17;96537.47;;;7.64;54.90
24962;BME280;12992;50.884;13.668;2023-03-18T02:38:45;96549.13;;;7.64;54.36
24962;BME280;12992;50.884;13.668;2023-03-18T02:41:20;96535.28;;;7.61;54.40
24962;BME280;12992;50.884;13.668;2023-03-18T02:43:47;96546.09;;;7.61;54.20
24962;BME280;12992;50.884;13.668;2023-03-18T02:48:42;96551.72;;;7.54;54.28
24962;BME280;12992;50.884;13.668;2023-03-18T02:51:10;96554.44;;;7.54;54.42
24962;BME280;12992;50.884;13.668;2023-03-18T02:53:36;96556.31;;;7.54;54.45
24962;BME280;12992;50.884;13.668;2023-03-18T02:56:03;96555.19;;;7.50;54.43
24962;BME280;12992;50.884;13.668;2023-03-18T02:58:29;96578.25;;;7.52;54.41
24962;BME280;12992;50.884;13.668;2023-03-18T03:00:57;96570.69;;;7.54;54.40
24962;BME280;12992;50.884;13.668;2023-03-18T03:03:24;96580.44;;;7.55;54.30
24962;BME280;12992;50.884;13.668;2023-03-18T03:05:51;96581.81;;;7.58;53.92
24962;BME280;12992;50.884;13.668;2023-03-18T03:08:18;96589.94;;;7.58;53.79
24962;BME280;12992;50.884;13.668;2023-03-18T03:10:46;96581.25;;;7.56;54.15
24962;BME280;12992;50.884;13.668;2023-03-18T03:13:12;96594.06;;;7.60;53.84
24962;BME280;12992;50.884;13.668;2023-03-18T03:15:38;96596.50;;;7.62;54.08
24962;BME280;12992;50.884;13.668;2023-03-18T03:18:05;96598.97;;;7.63;54.23
24962;BME280;12992;50.884;13.668;2023-03-18T03:20:31;96600.34;;;7.66;54.20
24962;BME280;12992;50.884;13.668;2023-03-18T03:23:00;96602.75;;;7.62;54.82
24962;BME280;12992;50.884;13.668;2023-03-18T03:25:26;96597.00;;;7.59;54.18
24962;BME280;12992;50.884;13.668;2023-03-18T03:27:52;96611.63;;;7.58;54.65
24962;BME280;12992;50.884;13.668;2023-03-18T03:30:19;96605.91;;;7.54;54.59
24962;BME280;12992;50.884;13.668;2023-03-18T03:32:45;96601.00;;;7.51;54.37
24962;BME280;12992;50.884;13.668;2023-03-18T03:35:13;96596.59;;;7.45;54.76
24962;BME280;12992;50.884;13.668;2023-03-18T03:37:38;96604.66;;;7.40;56.36
24962;BME280;12992;50.884;13.668;2023-03-18T03:40:05;96597.56;;;7.34;56.44
24962;BME280;12992;50.884;13.668;2023-03-18T03:42:30;96610.47;;;7.27;57.98
24962;BME280;12992;50.884;13.668;2023-03-18T03:44:56;96605.78;;;7.22;57.44
24962;BME280;12992;50.884;13.668;2023-03-18T03:47:21;96605.75;;;7.17;57.87
24962;BME280;12992;50.884;13.668;2023-03-18T03:49:47;96616.84;;;7.16;57.99
24962;BME280;12992;50.884;13.668;2023-03-18T03:52:14;96597.25;;;7.08;57.07
24962;BME280;12992;50.884;13.668;2023-03-18T03:54:43;96629.91;;;7.24;55.69
24962;BME280;12992;50.884;13.668;2023-03-18T03:57:09;96633.25;;;7.31;55.48
24962;BME280;12992;50.884;13.668;2023-03-18T03:59:34;96627.84;;;7.31;54.52
24962;BME280;12992;50.884;13.668;2023-03-18T04:02:10;96626.72;;;7.27;55.04
24962;BME280;12992;50.884;13.668;2023-03-18T04:04:36;96630.22;;;7.27;54.67
24962;BME280;12992;50.884;13.668;2023-03-18T04:07:01;96629.34;;;7.22;55.30
24962;BME280;12992;50.884;13.668;2023-03-18T04:09:27;96626.88;;;7.20;55.47
24962;BME280;12992;50.884;13.668;2023-03-18T04:11:54;96624.94;;;7.16;55.21
24962;BME280;12992;50.884;13.668;2023-03-18T04:14:19;96630.03;;;7.12;55.08
24962;BME280;12992;50.884;13.668;2023-03-18T04:16:45;96629.22;;;7.12;55.17
24962;BME280;12992;50.884;13.668;2023-03-18T04:19:10;96629.72;;;7.08;55.26
24962;BME280;12992;50.884;13.668;2023-03-18T04:21:35;96636.22;;;7.07;55.81
24962;BME280;12992;50.884;13.668;2023-03-18T04:24:02;96635.63;;;7.05;55.51
24962;BME280;12992;50.884;13.668;2023-03-18T04:26:29;96642.06;;;6.99;55.92
24962;BME280;12992;50.884;13.668;2023-03-18T04:28:58;96644.50;;;7.01;55.64
24962;BME280;12992;50.884;13.668;2023-03-18T04:31:24;96646.13;;;7.02;55.29
24962;BME280;12992;50.884;13.668;2023-03-18T04:33:49;96641.72;;;6.96;55.45
24962;BME280;12992;50.884;13.668;2023-03-18T04:36:15;96637.06;;;6.91;55.71
24962;BME280;12992;50.884;13.668;2023-03-18T04:38:40;96640.84;;;6.90;55.66
24962;BME280;12992;50.884;13.668;2023-03-18T04:41:07;96652.75;;;6.89;55.74
24962;BME280;12992;50.884;13.668;2023-03-18T04:43:32;96655.44;;;6.89;55.46
24962;BME280;12992;50.884;13.668;2023-03-18T04:45:58;96654.53;;;6.84;55.84
24962;BME280;12992;50.884;13.668;2023-03-18T04:48:24;96655.34;;;6.84;55.19
24962;BME280;12992;50.884;13.668;2023-03-18T04:50:52;96657.97;;;6.79;55.98
24962;BME280;12992;50.884;13.668;2023-03-18T04:53:23;96653.88;;;6.76;55.68
24962;BME280;12992;50.884;13.668;2023-03-18T04:55:48;96653.56;;;6.73;56.52
24962;BME280;12992;50.884;13.668;2023-03-18T04:58:15;96650.28;;;6.71;57.19
24962;BME280;12992;50.884;13.668;2023-03-18T05:00:49;96654.06;;;6.70;56.83
24962;BME280;12992;50.884;13.668;2023-03-18T05:03:22;96672.25;;;6.74;56.75
24962;BME280;12992;50.884;13.668;2023-03-18T05:05:48;96667.16;;;6.78;57.05
24962;BME280;12992;50.884;13.668;2023-03-18T05:08:17;96684.06;;;6.85;57.08
24962;BME280;12992;50.884;13.668;2023-03-18T05:10:44;96682.44;;;6.84;56.94
24962;BME280;12992;50.884;13.668;2023-03-18T05:13:11;96685.13;;;6.84;57.50
24962;BME280;12992;50.884;13.668;2023-03-18T05:15:37;96671.19;;;6.75;57.27
24962;BME280;12992;50.884;13.668;2023-03-18T05:18:02;96672.56;;;6.78;57.43
24962;BME280;12992;50.884;13.668;2023-03-18T05:20:29;96679.63;;;6.79;57.00
24962;BME280;12992;50.884;13.668;2023-03-18T05:22:56;96686.94;;;6.78;58.42
24962;BME280;12992;50.884;13.668;2023-03-18T05:25:32;96685.44;;;6.71;58.22
24962;BME280;12992;50.884;13.668;2023-03-18T05:27:58;96682.75;;;6.71;59.03
24962;BME280;12992;50.884;13.668;2023-03-18T05:30:31;96687.69;;;6.74;58.34
24962;BME280;12992;50.884;13.668;2023-03-18T05:32:59;96684.97;;;6.74;58.39
24962;BME280;12992;50.884;13.668;2023-03-18T05:35:37;96696.94;;;6.78;58.38
24962;BME280;12992;50.884;13.668;2023-03-18T05:38:03;96703.97;;;6.79;58.51
24962;BME280;12992;50.884;13.668;2023-03-18T05:40:28;96702.69;;;6.81;58.00
24962;BME280;12992;50.884;13.668;2023-03-18T05:43:14;96711.94;;;6.86;57.65
24962;BME280;12992;50.884;13.668;2023-03-18T05:45:47;96716.28;;;6.87;58.07
24962;BME280;12992;50.884;13.668;2023-03-18T05:48:14;96718.75;;;6.88;57.79
24962;BME280;12992;50.884;13.668;2023-03-18T05:50:48;96726.38;;;6.91;57.83
24962;BME280;12992;50.884;13.668;2023-03-18T05:53:17;96723.75;;;6.96;57.60
24962;BME280;12992;50.884;13.668;2023-03-18T05:55:45;96721.63;;;6.98;57.85
24962;BME280;12992;50.884;13.668;2023-03-18T05:58:12;96719.41;;;6.95;57.85
24962;BME280;12992;50.884;13.668;2023-03-18T06:00:39;96715.31;;;6.93;58.07
24962;BME280;12992;50.884;13.668;2023-03-18T06:03:05;96726.13;;;6.93;58.36
24962;BME280;12992;50.884;13.668;2023-03-18T06:05:31;96726.44;;;6.96;57.53
24962;BME280;12992;50.884;13.668;2023-03-18T06:07:57;96730.78;;;6.97;57.63
24962;BME280;12992;50.884;13.668;2023-03-18T06:10:23;96738.44;;;7.00;57.44
24962;BME280;12992;50.884;13.668;2023-03-18T06:12:50;96742.13;;;6.94;58.03
24962;BME280;12992;50.884;13.668;2023-03-18T06:15:16;96732.38;;;6.93;58.04
24962;BME280;12992;50.884;13.668;2023-03-18T06:17:41;96738.84;;;6.92;58.04
24962;BME280;12992;50.884;13.668;2023-03-18T06:20:09;96749.75;;;6.97;57.73
24962;BME280;12992;50.884;13.668;2023-03-18T06:22:37;96753.34;;;7.03;57.68
24962;BME280;12992;50.884;13.668;2023-03-18T06:25:03;96771.16;;;7.16;57.50
24962;BME280;12992;50.884;13.668;2023-03-18T06:27:29;96785.94;;;7.25;57.29
24962;BME280;12992;50.884;13.668;2023-03-18T06:29:57;96790.34;;;7.31;57.28
24962;BME280;12992;50.884;13.668;2023-03-18T06:32:27;96783.28;;;7.30;57.12
24962;BME280;12992;50.884;13.668;2023-03-18T06:34:54;96789.88;;;7.34;58.22
24962;BME280;12992;50.884;13.668;2023-03-18T06:37:20;96781.78;;;7.39;57.72
24962;BME280;12992;50.884;13.668;2023-03-18T06:39:47;96781.88;;;7.44;57.56
24962;BME280;12992;50.884;13.668;2023-03-18T06:42:13;96790.31;;;7.48;58.11
24962;BME280;12992;50.884;13.668;2023-03-18T06:44:46;96791.69;;;7.50;57.98
24962;BME280;12992;50.884;13.668;2023-03-18T06:47:20;96791.47;;;7.52;58.35
24962;BME280;12992;50.884;13.668;2023-03-18T06:49:54;96788.50;;;7.53;58.25
24962;BME280;12992;50.884;13.668;2023-03-18T06:52:27;96800.00;;;7.60;58.65
24962;BME280;12992;50.884;13.668;2023-03-18T06:54:57;96813.59;;;7.65;58.50
24962;BME280;12992;50.884;13.668;2023-03-18T06:57:23;96813.94;;;7.69;58.69
24962;BME280;12992;50.884;13.668;2023-03-18T06:59:49;96808.31;;;7.76;58.63
24962;BME280;12992;50.884;13.668;2023-03-18T07:02:15;96815.19;;;7.83;58.92
24962;BME280;12992;50.884;13.668;2023-03-18T07:04:40;96821.28;;;7.90;58.69
24962;BME280;12992;50.884;13.668;2023-03-18T07:07:06;96828.72;;;8.00;58.58
24962;BME280;12992;50.884;13.668;2023-03-18T07:09:33;96838.88;;;8.10;58.72
24962;BME280;12992;50.884;13.668;2023-03-18T07:11:59;96848.53;;;8.22;58.42
24962;BME280;12992;50.884;13.668;2023-03-18T07:14:25;96854.34;;;8.31;58.20
24962;BME280;12992;50.884;13.668;2023-03-18T07:16:52;96858.03;;;8.42;58.27
24962;BME280;12992;50.884;13.668;2023-03-18T07:19:17;96868.28;;;8.62;58.75
24962;BME280;12992;50.884;13.668;2023-03-18T07:21:44;96866.31;;;8.79;57.97
24962;BME280;12992;50.884;13.668;2023-03-18T07:24:10;96876.56;;;8.99;57.74
24962;BME280;12992;50.884;13.668;2023-03-18T07:26:36;96876.97;;;9.13;56.65
24962;BME280;12992;50.884;13.668;2023-03-18T07:29:03;96870.59;;;9.29;56.58
24962;BME280;12992;50.884;13.668;2023-03-18T07:31:29;96890.34;;;9.51;57.22
24962;BME280;12992;50.884;13.668;2023-03-18T07:33:55;96885.97;;;9.82;57.33
24962;BME280;12992;50.884;13.668;2023-03-18T07:36:22;96885.66;;;10.21;56.71
24962;BME280;12992;50.884;13.668;2023-03-18T07:38:47;96877.09;;;10.44;56.44
24962;BME280;12992;50.884;13.668;2023-03-18T07:41:13;96871.19;;;10.68;56.86
24962;BME280;12992;50.884;13.668;2023-03-18T07:43:38;96839.41;;;10.99;57.05
24962;BME280;12992;50.884;13.668;2023-03-18T07:46:04;96837.53;;;11.25;56.52
24962;BME280;12992;50.884;13.668;2023-03-18T07:48:30;96837.81;;;11.49;55.62
24962;BME280;12992;50.884;13.668;2023-03-18T07:50:55;96820.34;;;11.55;55.03
24962;BME280;12992;50.884;13.668;2023-03-18T07:53:21;96810.53;;;11.54;54.35
24962;BME280;12992;50.884;13.668;2023-03-18T07:55:46;96816.81;;;11.59;54.50
24962;BME280;12992;50.884;13.668;2023-03-18T07:58:11;96802.34;;;11.69;54.41
24962;BME280;12992;50.884;13.668;2023-03-18T08:00:38;96814.59;;;11.77;54.37
24962;BME280;12992;50.884;13.668;2023-03-18T08:03:03;96831.75;;;11.98;56.01
24962;BME280;12992;50.884;13.668;2023-03-18T08:05:28;96829.81;;;12.08;55.12
24962;BME280;12992;50.884;13.668;2023-03-18T08:07:54;96834.72;;;12.22;54.77
24962;BME280;12992;50.884;13.668;2023-03-18T08:10:19;96824.88;;;12.21;55.44
24962;BME280;12992;50.884;13.668;2023-03-18T08:12:45;96834.66;;;12.37;55.06
24962;BME280;12992;50.884;13.668;2023-03-18T08:15:10;96831.59;;;12.48;54.93
24962;BME280;12992;50.884;13.668;2023-03-18T08:17:37;96825.59;;;12.46;55.14
24962;BME280;12992;50.884;13.668;2023-03-18T08:20:04;96840.56;;;12.59;54.95
24962;BME280;12992;50.884;13.668;2023-03-18T08:22:29;96832.59;;;12.68;54.82
24962;BME280;12992;50.884;13.668;2023-03-18T08:24:55;96846.94;;;12.89;55.16
24962;BME280;12992;50.884;13.668;2023-03-18T08:27:22;96858.00;;;13.18;54.60
24962;BME280;12992;50.884;13.668;2023-03-18T08:29:47;96845.00;;;13.44;53.92
24962;BME280;12992;50.884;13.668;2023-03-18T08:32:14;96849.19;;;13.65;53.00
24962;BME280;12992;50.884;13.668;2023-03-18T08:34:41;96832.25;;;13.63;52.98
24962;BME280;12992;50.884;13.668;2023-03-18T08:37:06;96806.81;;;13.28;52.27
24962;BME280;12992;50.884;13.668;2023-03-18T08:39:32;96815.38;;;13.17;53.75
24962;BME280;12992;50.884;13.668;2023-03-18T08:41:57;96801.75;;;13.07;54.31
24962;BME280;12992;50.884;13.668;2023-03-18T08:44:23;96803.13;;;13.04;53.65
24962;BME280;12992;50.884;13.668;2023-03-18T08:46:49;96815.16;;;13.08;53.73
24962;BME280;12992;50.884;13.668;2023-03-18T08:49:15;96823.31;;;13.13;53.99
24962;BME280;12992;50.884;13.668;2023-03-18T08:51:40;96830.91;;;13.26;53.42
24962;BME280;12992;50.884;13.668;2023-03-18T08:54:06;96838.03;;;13.56;53.86
24962;BME280;12992;50.884;13.668;2023-03-18T08:56:32;96861.19;;;13.98;53.85
24962;BME280;12992;50.884;13.668;2023-03-18T08:58:58;96861.50;;;14.50;52.22
24962;BME280;12992;50.884;13.668;2023-03-18T09:01:23;96867.28;;;14.91;51.01
24962;BME280;12992;50.884;13.668;2023-03-18T09:03:49;96863.81;;;15.61;49.46
24962;BME280;12992;50.884;13.668;2023-03-18T09:06:15;96848.34;;;16.57;49.21
24962;BME280;12992;50.884;13.668;2023-03-18T09:08:41;96839.28;;;17.20;48.13
24962;BME280;12992;50.884;13.668;2023-03-18T09:11:06;96825.16;;;17.49;48.04
24962;BME280;12992;50.884;13.668;2023-03-18T09:13:32;96823.59;;;17.79;46.98
24962;BME280;12992;50.884;13.668;2023-03-18T09:15:58;96837.69;;;18.40;47.73
24962;BME280;12992;50.884;13.668;2023-03-18T09:18:24;96819.94;;;19.29;45.39
24962;BME280;12992;50.884;13.668;2023-03-18T09:20:49;96837.44;;;20.02;43.67
24962;BME280;12992;50.884;13.668;2023-03-18T09:23:15;96856.22;;;20.82;44.03
24962;BME280;12992;50.884;13.668;2023-03-18T09:25:42;96815.47;;;20.61;42.79
24962;BME280;12992;50.884;13.668;2023-03-18T09:28:09;96826.53;;;20.91;43.21
24962;BME280;12992;50.884;13.668;2023-03-18T09:30:34;96851.25;;;21.46;43.22
24962;BME280;12992;50.884;13.668;2023-03-18T09:33:00;96843.00;;;21.80;41.78
24962;BME280;12992;50.884;13.668;2023-03-18T09:35:26;96846.72;;;22.17;41.50
24962;BME280;12992;50.884;13.668;2023-03-18T09:37:53;96834.16;;;22.19;41.15
24962;BME280;12992;50.884;13.668;2023-03-18T09:40:36;96843.47;;;22.60;40.90
24962;BME280;12992;50.884;13.668;2023-03-18T09:43:12;96867.34;;;23.34;42.13
24962;BME280;12992;50.884;13.668;2023-03-18T09:45:52;96832.13;;;23.38;40.21
24962;BME280;12992;50.884;13.668;2023-03-18T09:51:52;96871.41;;;24.93;39.52
24962;BME280;12992;50.884;13.668;2023-03-18T09:54:34;96864.94;;;24.89;41.55
24962;BME280;12992;50.884;13.668;2023-03-18T09:57:04;96859.56;;;25.11;40.41
24962;BME280;12992;50.884;13.668;2023-03-18T09:59:41;96834.22;;;24.85;40.40
24962;BME280;12992;50.884;13.668;2023-03-18T10:02:21;96841.28;;;24.82;41.46
24962;BME280;12992;50.884;13.668;2023-03-18T10:04:54;96826.91;;;24.96;40.19
24962;BME280;12992;50.884;13.668;2023-03-18T10:07:24;96826.47;;;24.78;41.46
24962;BME280;12992;50.884;13.668;2023-03-18T10:09:53;96810.31;;;24.68;42.69
24962;BME280;12992;50.884;13.668;2023-03-18T10:12:30;96813.19;;;24.40;43.49
24962;BME280;12992;50.884;13.668;2023-03-18T10:15:11;96756.63;;;23.77;41.57
24962;BME280;12992;50.884;13.668;2023-03-18T10:20:15;96750.38;;;22.99;45.11
24962;BME280;12992;50.884;13.668;2023-03-18T10:22:56;96774.66;;;23.02;44.47
24962;BME280;12992;50.884;13.668;2023-03-18T10:25:44;96788.19;;;23.16;45.53
24962;BME280;12992;50.884;13.668;2023-03-18T10:33:44;96722.97;;;22.12;45.52
24962;BME280;12992;50.884;13.668;2023-03-18T10:38:43;96728.19;;;21.81;46.45
24962;BME280;12992;50.884;13.668;2023-03-18T10:41:29;96754.31;;;21.80;48.42
24962;BME280;12992;50.884;13.668;2023-03-18T10:43:56;96721.97;;;21.38;48.01
24962;BME280;12992;50.884;13.668;2023-03-18T10:46:23;96737.03;;;21.29;48.51
24962;BME280;12992;50.884;13.668;2023-03-18T10:49:11;96728.72;;;21.08;49.70
24962;BME280;12992;50.884;13.668;2023-03-18T10:54:11;96701.81;;;20.67;47.26
24962;BME280;12992;50.884;13.668;2023-03-18T10:56:37;96705.34;;;20.17;47.88
24962;BME280;12992;50.884;13.668;2023-03-18T10:59:14;96714.13;;;19.80;48.82
24962;BME280;12992;50.884;13.668;2023-03-18T11:01:41;96704.28;;;19.36;49.79
24962;BME280;12992;50.884;13.668;2023-03-18T11:04:13;96735.13;;;19.47;53.45
24962;BME280;12992;50.884;13.668;2023-03-18T11:06:44;96751.84;;;19.59;54.55
24962;BME280;12992;50.884;13.668;2023-03-18T11:09:15;96753.78;;;19.67;56.51
24962;BME280;12992;50.884;13.668;2023-03-18T11:11:43;96752.19;;;19.49;56.33
24962;BME280;12992;50.884;13.668;2023-03-18T11:14:14;96754.00;;;19.36;58.71
24962;BME280;12992;50.884;13.668;2023-03-18T11:16:44;96743.28;;;19.09;57.73
24962;BME280;12992;50.884;13.668;2023-03-18T11:21:59;96741.94;;;18.72;60.11
24962;BME280;12992;50.884;13.668;2023-03-18T11:24:26;96778.97;;;18.96;60.19
24962;BME280;12992;50.884;13.668;2023-03-18T11:27:21;96755.75;;;18.89;59.41
24962;BME280;12992;50.884;13.668;2023-03-18T11:29:54;96765.38;;;19.00;58.83
24962;BME280;12992;50.884;13.668;2023-03-18T11:32:25;96768.94;;;19.01;58.82
24962;BME280;12992;50.884;13.668;2023-03-18T11:35:00;96764.34;;;18.87;57.99
24962;BME280;12992;50.884;13.668;2023-03-18T11:37:30;96774.75;;;19.08;58.14
24962;BME280;12992;50.884;13.668;2023-03-18T11:40:19;96785.97;;;19.20;58.96
24962;BME280;12992;50.884;13.668;2023-03-18T11:42:47;96802.22;;;19.73;54.35
24962;BME280;12992;50.884;13.668;2023-03-18T11:45:26;96765.03;;;19.71;48.51
24962;BME280;12992;50.884;13.668;2023-03-18T11:47:54;96790.31;;;19.90;50.85
24962;BME280;12992;50.884;13.668;2023-03-18T11:50:21;96767.91;;;19.74;50.08
24962;BME280;12992;50.884;13.668;2023-03-18T11:53:20;96764.13;;;19.88;48.44
24962;BME280;12992;50.884;13.668;2023-03-18T12:01:47;96714.03;;;19.08;47.31
24962;BME280;12992;50.884;13.668;2023-03-18T12:07:21;96709.09;;;18.53;48.39
24962;BME280;12992;50.884;13.668;2023-03-18T12:10:12;96716.19;;;18.28;48.93
24962;BME280;12992;50.884;13.668;2023-03-18T12:12:51;96713.03;;;18.03;48.85
24962;BME280;12992;50.884;13.668;2023-03-18T12:26:33;96732.38;;;17.81;49.27
24962;BME280;12992;50.884;13.668;2023-03-18T12:29:24;96716.81;;;17.54;49.29
24962;BME280;12992;50.884;13.668;2023-03-18T12:32:18;96720.16;;;17.20;49.56
24962;BME280;12992;50.884;13.668;2023-03-18T12:34:53;96718.97;;;17.12;50.31
24962;BME280;12992;50.884;13.668;2023-03-18T12:37:40;96738.34;;;17.30;52.14
24962;BME280;12992;50.884;13.668;2023-03-18T12:42:57;96723.13;;;17.23;50.34
24962;BME280;12992;50.884;13.668;2023-03-18T12:45:29;96749.44;;;17.61;51.22
24962;BME280;12992;50.884;13.668;2023-03-18T12:48:00;96758.03;;;17.90;54.08
24962;BME280;12992;50.884;13.668;2023-03-18T12:50:35;96752.91;;;18.06;51.86
24962;BME280;12992;50.884;13.668;2023-03-18T12:53:08;96726.94;;;17.98;50.64
24962;BME280;12992;50.884;13.668;2023-03-18T12:55:38;96723.00;;;17.82;52.73
24962;BME280;12992;50.884;13.668;2023-03-18T12:58:27;96736.59;;;17.78;52.90
24962;BME280;12992;50.884;13.668;2023-03-18T13:00:57;96730.94;;;17.83;52.21
24962;BME280;12992;50.884;13.668;2023-03-18T13:03:40;96749.09;;;17.85;54.81
24962;BME280;12992;50.884;13.668;2023-03-18T13:09:02;96764.91;;;18.10;56.27
24962;BME280;12992;50.884;13.668;2023-03-18T13:17:19;96782.00;;;18.69;55.55
24962;BME280;12992;50.884;13.668;2023-03-18T13:19:47;96740.59;;;18.60;51.79
24962;BME280;12992;50.884;13.668;2023-03-18T13:25:20;96738.47;;;18.49;52.37
24962;BME280;12992;50.884;13.668;2023-03-18T13:30:52;96721.44;;;18.38;51.93
24962;BME280;12992;50.884;13.668;2023-03-18T13:41:44;96734.97;;;18.65;52.52
24962;BME280;12992;50.884;13.668;2023-03-18T13:44:30;96718.19;;;18.45;51.76
24962;BME280;12992;50.884;13.668;2023-03-18T13:47:02;96719.66;;;18.51;51.88
24962;BME280;12992;50.884;13.668;2023-03-18T13:49:30;96716.91;;;18.51;52.36
24962;BME280;12992;50.884;13.668;2023-03-18T13:52:00;96754.81;;;19.11;51.26
24962;BME280;12992;50.884;13.668;2023-03-18T13:54:33;96725.88;;;19.17;50.10
24962;BME280;12992;50.884;13.668;2023-03-18T13:57:31;96704.81;;;18.95;50.52
24962;BME280;12992;50.884;13.668;2023-03-18T14:00:23;96714.69;;;18.87;51.12
24962;BME280;12992;50.884;13.668;2023-03-18T14:13:57;96693.69;;;19.47;50.17
24962;BME280;12992;50.884;13.668;2023-03-18T14:19:10;96685.59;;;18.47;55.15
24962;BME280;12992;50.884;13.668;2023-03-18T14:21:46;96674.16;;;18.05;54.94
24962;BME280;12992;50.884;13.668;2023-03-18T14:29:37;96676.06;;;17.34;56.57
24962;BME280;12992;50.884;13.668;2023-03-18T14:32:35;96693.72;;;17.33;59.12
24962;BME280;12992;50.884;13.668;2023-03-18T14:35:21;96701.66;;;17.34;60.45
24962;BME280;12992;50.884;13.668;2023-03-18T14:38:22;96688.16;;;17.24;57.60